sensor_id;sensor_type;location;lat;lon;timestamp;temperature;humidity
9772;DHT22;4925;52.588;13.370;2022-08-25T00:01:08;20.30;99.90
9772;DHT22;4925;52.588;13.370;2022-08-25T00:03:34;20.30;99.90
9772;DHT22;4925;52.588;13.370;2022-08-25T00:06:00;20.30;99.90
9772;DHT22;4925;52.588;13.370;2022-08-25T00:08:25;20.20;99.90
9772;DHT22;4925;52.588;13.370;2022-08-25T00:10:51;20.20;99.90
9772;DHT22;4925;52.588;13.370;2022-08-25T00:13:17;20.10;99.90
9772;DHT22;4925;52.588;13.370;2022-08-25T00:15:42;20.10;99.90
9772;DHT22;4925;52.588;13.370;2022-08-25T00:18:09;20.10;99.90
9772;DHT22;4925;52.588;13.370;2022-08-25T00:20:34;20.10;99.90
9772;DHT22;4925;52.588;13.370;2022-08-25T00:23:00;20.10;99.90
9772;DHT22;4925;52.588;13.370;2022-08-25T00:25:26;20.10;99.90
9772;DHT22;4925;52.588;13.370;2022-08-25T00:27:52;20.10;99.90
9772;DHT22;4925;52.588;13.370;2022-08-25T00:30:17;20.00;99.90
9772;DHT22;4925;52.588;13.370;2022-08-25T00:32:44;20.00;99.90
9772;DHT22;4925;52.588;13.370;2022-08-25T00:35:10;20.00;99.90
9772;DHT22;4925;52.588;13.370;2022-08-25T00:37:36;20.00;99.90
9772;DHT22;4925;52.588;13.370;2022-08-25T00:40:04;19.90;99.90
9772;DHT22;4925;52.588;13.370;2022-08-25T00:42:30;19.90;99.90
9772;DHT22;4925;52.588;13.370;2022-08-25T00:44:56;19.90;99.90
9772;DHT22;4925;52.588;13.370;2022-08-25T00:47:23;19.90;99.90
9772;DHT22;4925;52.588;13.370;2022-08-25T00:49:52;19.80;99.90
9772;DHT22;4925;52.588;13.370;2022-08-25T00:52:32;19.80;99.90
9772;DHT22;4925;52.588;13.370;2022-08-25T00:55:03;19.80;99.90
9772;DHT22;4925;52.588;13.370;2022-08-25T00:57:37;19.70;99.90
9772;DHT22;4925;52.588;13.370;2022-08-25T01:00:08;19.60;99.90
9772;DHT22;4925;52.588;13.370;2022-08-25T01:02:35;19.70;99.90
9772;DHT22;4925;52.588;13.370;2022-08-25T01:05:02;19.60;99.90
9772;DHT22;4925;52.588;13.370;2022-08-25T01:07:27;19.60;99.90
9772;DHT22;4925;52.588;13.370;2022-08-25T01:09:53;19.60;99.90
9772;DHT22;4925;52.588;13.370;2022-08-25T01:12:21;19.60;99.90
9772;DHT22;4925;52.588;13.370;2022-08-25T01:14:48;19.60;99.90
9772;DHT22;4925;52.588;13.370;2022-08-25T01:17:14;19.60;99.90
9772;DHT22;4925;52.588;13.370;2022-08-25T01:19:40;19.70;99.90
9772;DHT22;4925;52.588;13.370;2022-08-25T01:22:07;19.70;99.90
9772;DHT22;4925;52.588;13.370;2022-08-25T01:27:08;19.70;99.90
9772;DHT22;4925;52.588;13.370;2022-08-25T01:29:34;19.60;99.90
9772;DHT22;4925;52.588;13.370;2022-08-25T01:32:08;19.60;99.90
9772;DHT22;4925;52.588;13.370;2022-08-25T01:34:36;19.60;99.90
9772;DHT22;4925;52.588;13.370;2022-08-25T01:37:03;19.60;99.90
9772;DHT22;4925;52.588;13.370;2022-08-25T01:39:30;19.60;99.90
9772;DHT22;4925;52.588;13.370;2022-08-25T01:42:18;19.60;99.90
9772;DHT22;4925;52.588;13.370;2022-08-25T01:44:45;19.50;99.90
9772;DHT22;4925;52.588;13.370;2022-08-25T01:47:12;19.50;99.90
9772;DHT22;4925;52.588;13.370;2022-08-25T01:49:39;19.40;99.90
9772;DHT22;4925;52.588;13.370;2022-08-25T01:52:27;19.40;99.90
9772;DHT22;4925;52.588;13.370;2022-08-25T01:54:53;19.40;99.90
9772;DHT22;4925;52.588;13.370;2022-08-25T01:57:18;19.40;99.90
9772;DHT22;4925;52.588;13.370;2022-08-25T01:59:44;19.40;99.90
9772;DHT22;4925;52.588;13.370;2022-08-25T02:02:10;19.40;99.90
9772;DHT22;4925;52.588;13.370;2022-08-25T02:04:37;19.40;99.90
9772;DHT22;4925;52.588;13.370;2022-08-25T02:07:04;19.40;99.90
9772;DHT22;4925;52.588;13.370;2022-08-25T02:09:32;19.40;99.90
9772;DHT22;4925;52.588;13.370;2022-08-25T02:11:58;19.40;99.90
9772;DHT22;4925;52.588;13.370;2022-08-25T02:14:24;19.30;99.90
9772;DHT22;4925;52.588;13.370;2022-08-25T02:16:51;19.30;99.90
9772;DHT22;4925;52.588;13.370;2022-08-25T02:19:19;19.30;99.90
9772;DHT22;4925;52.588;13.370;2022-08-25T02:21:45;19.20;99.90
9772;DHT22;4925;52.588;13.370;2022-08-25T02:24:11;19.30;99.90
9772;DHT22;4925;52.588;13.370;2022-08-25T02:26:37;19.30;99.90
9772;DHT22;4925;52.588;13.370;2022-08-25T02:29:03;19.30;99.90
9772;DHT22;4925;52.588;13.370;2022-08-25T02:31:29;19.30;99.90
9772;DHT22;4925;52.588;13.370;2022-08-25T02:33:56;19.20;99.90
9772;DHT22;4925;52.588;13.370;2022-08-25T02:36:22;19.20;99.90
9772;DHT22;4925;52.588;13.370;2022-08-25T02:38:48;19.20;99.90
9772;DHT22;4925;52.588;13.370;2022-08-25T02:41:22;19.20;99.90
9772;DHT22;4925;52.588;13.370;2022-08-25T02:43:49;19.20;99.90
9772;DHT22;4925;52.588;13.370;2022-08-25T02:46:17;18.50;99.90
9772;DHT22;4925;52.588;13.370;2022-08-25T02:48:44;17.70;99.90
9772;DHT22;4925;52.588;13.370;2022-08-25T02:51:11;19.10;99.90
9772;DHT22;4925;52.588;13.370;2022-08-25T02:53:38;19.10;99.90
9772;DHT22;4925;52.588;13.370;2022-08-25T02:56:05;19.10;99.90
9772;DHT22;4925;52.588;13.370;2022-08-25T02:58:31;19.10;99.90
9772;DHT22;4925;52.588;13.370;2022-08-25T03:00:57;19.10;99.90
9772;DHT22;4925;52.588;13.370;2022-08-25T03:03:22;19.10;99.90
9772;DHT22;4925;52.588;13.370;2022-08-25T03:05:48;19.10;99.90
9772;DHT22;4925;52.588;13.370;2022-08-25T03:08:14;19.10;99.90
9772;DHT22;4925;52.588;13.370;2022-08-25T03:10:40;19.10;99.90
9772;DHT22;4925;52.588;13.370;2022-08-25T03:13:05;19.10;99.90
9772;DHT22;4925;52.588;13.370;2022-08-25T03:15:32;19.10;99.90
9772;DHT22;4925;52.588;13.370;2022-08-25T03:17:58;19.00;99.90
9772;DHT22;4925;52.588;13.370;2022-08-25T03:20:24;19.00;99.90
9772;DHT22;4925;52.588;13.370;2022-08-25T03:22:51;19.00;99.90
9772;DHT22;4925;52.588;13.370;2022-08-25T03:25:16;19.20;99.90
9772;DHT22;4925;52.588;13.370;2022-08-25T03:28:02;19.00;99.90
9772;DHT22;4925;52.588;13.370;2022-08-25T03:30:28;18.90;99.90
9772;DHT22;4925;52.588;13.370;2022-08-25T03:32:54;18.90;99.90
9772;DHT22;4925;52.588;13.370;2022-08-25T03:35:21;18.90;99.90
9772;DHT22;4925;52.588;13.370;2022-08-25T03:37:46;18.90;99.90
9772;DHT22;4925;52.588;13.370;2022-08-25T03:40:14;18.80;99.90
9772;DHT22;4925;52.588;13.370;2022-08-25T03:42:44;18.90;99.90
9772;DHT22;4925;52.588;13.370;2022-08-25T03:45:11;18.90;99.90
9772;DHT22;4925;52.588;13.370;2022-08-25T03:47:39;18.90;99.90
9772;DHT22;4925;52.588;13.370;2022-08-25T03:50:06;18.90;99.90
9772;DHT22;4925;52.588;13.370;2022-08-25T03:52:33;18.80;99.90
9772;DHT22;4925;52.588;13.370;2022-08-25T03:54:59;18.90;99.90
9772;DHT22;4925;52.588;13.370;2022-08-25T03:57:25;19.70;99.90
9772;DHT22;4925;52.588;13.370;2022-08-25T03:59:51;18.80;99.90
9772;DHT22;4925;52.588;13.370;2022-08-25T04:02:17;18.80;99.90
9772;DHT22;4925;52.588;13.370;2022-08-25T04:04:43;18.70;99.90
9772;DHT22;4925;52.588;13.370;2022-08-25T04:07:09;18.80;99.90
9772;DHT22;4925;52.588;13.370;2022-08-25T04:09:35;18.80;99.90
9772;DHT22;4925;52.588;13.370;2022-08-25T04:12:00;18.80;99.90
9772;DHT22;4925;52.588;13.370;2022-08-25T04:14:26;18.80;99.90
9772;DHT22;4925;52.588;13.370;2022-08-25T04:16:52;18.80;99.90
9772;DHT22;4925;52.588;13.370;2022-08-25T04:19:17;18.80;99.90
9772;DHT22;4925;52.588;13.370;2022-08-25T04:21:43;18.80;99.90
9772;DHT22;4925;52.588;13.370;2022-08-25T04:24:10;18.80;99.90
9772;DHT22;4925;52.588;13.370;2022-08-25T04:26:40;18.90;99.90
9772;DHT22;4925;52.588;13.370;2022-08-25T04:29:07;18.90;99.90
9772;DHT22;4925;52.588;13.370;2022-08-25T04:31:34;19.80;99.90
9772;DHT22;4925;52.588;13.370;2022-08-25T04:34:02;18.80;99.90
9772;DHT22;4925;52.588;13.370;2022-08-25T04:36:28;18.90;99.90
9772;DHT22;4925;52.588;13.370;2022-08-25T04:38:54;18.80;99.90
9772;DHT22;4925;52.588;13.370;2022-08-25T04:41:22;18.90;99.90
9772;DHT22;4925;52.588;13.370;2022-08-25T04:43:48;18.90;99.90
9772;DHT22;4925;52.588;13.370;2022-08-25T04:46:20;19.00;99.90
9772;DHT22;4925;52.588;13.370;2022-08-25T04:48:51;19.00;99.90
9772;DHT22;4925;52.588;13.370;2022-08-25T04:51:19;19.90;99.90
9772;DHT22;4925;52.588;13.370;2022-08-25T04:53:45;19.00;99.90
9772;DHT22;4925;52.588;13.370;2022-08-25T04:56:13;19.00;99.90
9772;DHT22;4925;52.588;13.370;2022-08-25T04:58:40;19.00;99.90
9772;DHT22;4925;52.588;13.370;2022-08-25T05:01:08;19.00;99.90
9772;DHT22;4925;52.588;13.370;2022-08-25T05:03:34;19.00;99.90
9772;DHT22;4925;52.588;13.370;2022-08-25T05:06:00;19.00;99.90
9772;DHT22;4925;52.588;13.370;2022-08-25T05:08:26;19.00;99.90
9772;DHT22;4925;52.588;13.370;2022-08-25T05:10:52;19.00;99.90
9772;DHT22;4925;52.588;13.370;2022-08-25T05:13:22;19.10;99.90
9772;DHT22;4925;52.588;13.370;2022-08-25T05:15:58;19.00;99.90
9772;DHT22;4925;52.588;13.370;2022-08-25T05:18:26;19.00;99.90
9772;DHT22;4925;52.588;13.370;2022-08-25T05:20:54;19.00;99.90
9772;DHT22;4925;52.588;13.370;2022-08-25T05:23:21;19.10;99.90
9772;DHT22;4925;52.588;13.370;2022-08-25T05:25:47;19.10;99.90
9772;DHT22;4925;52.588;13.370;2022-08-25T05:28:14;19.20;99.90
9772;DHT22;4925;52.588;13.370;2022-08-25T05:30:41;19.20;99.90
9772;DHT22;4925;52.588;13.370;2022-08-25T05:33:08;19.20;99.90
9772;DHT22;4925;52.588;13.370;2022-08-25T05:35:34;19.30;99.90
9772;DHT22;4925;52.588;13.370;2022-08-25T05:38:02;19.30;99.90
9772;DHT22;4925;52.588;13.370;2022-08-25T05:40:28;19.30;99.90
9772;DHT22;4925;52.588;13.370;2022-08-25T05:42:54;19.30;99.90
9772;DHT22;4925;52.588;13.370;2022-08-25T05:45:21;19.40;99.90
9772;DHT22;4925;52.588;13.370;2022-08-25T05:47:47;19.50;99.90
9772;DHT22;4925;52.588;13.370;2022-08-25T05:50:13;19.50;99.90
9772;DHT22;4925;52.588;13.370;2022-08-25T05:52:39;20.20;99.90
9772;DHT22;4925;52.588;13.370;2022-08-25T05:55:05;19.50;99.90
9772;DHT22;4925;52.588;13.370;2022-08-25T05:57:32;19.60;99.90
9772;DHT22;4925;52.588;13.370;2022-08-25T05:59:58;19.60;99.90
9772;DHT22;4925;52.588;13.370;2022-08-25T06:02:23;19.50;99.90
9772;DHT22;4925;52.588;13.370;2022-08-25T06:05:18;19.60;99.90
9772;DHT22;4925;52.588;13.370;2022-08-25T06:07:45;19.60;99.90
9772;DHT22;4925;52.588;13.370;2022-08-25T06:10:12;19.70;99.90
9772;DHT22;4925;52.588;13.370;2022-08-25T06:12:41;19.60;99.90
9772;DHT22;4925;52.588;13.370;2022-08-25T06:15:10;19.70;99.90
9772;DHT22;4925;52.588;13.370;2022-08-25T06:17:36;19.70;99.90
9772;DHT22;4925;52.588;13.370;2022-08-25T06:20:08;19.70;99.90
9772;DHT22;4925;52.588;13.370;2022-08-25T06:22:34;19.70;99.90
9772;DHT22;4925;52.588;13.370;2022-08-25T06:25:02;19.80;99.90
9772;DHT22;4925;52.588;13.370;2022-08-25T06:27:28;19.70;99.90
9772;DHT22;4925;52.588;13.370;2022-08-25T06:29:54;19.70;99.90
9772;DHT22;4925;52.588;13.370;2022-08-25T06:32:19;19.70;99.90
9772;DHT22;4925;52.588;13.370;2022-08-25T06:34:45;19.80;99.90
9772;DHT22;4925;52.588;13.370;2022-08-25T06:37:11;19.70;99.90
9772;DHT22;4925;52.588;13.370;2022-08-25T06:39:36;19.80;99.90
9772;DHT22;4925;52.588;13.370;2022-08-25T06:42:02;19.10;99.90
9772;DHT22;4925;52.588;13.370;2022-08-25T06:44:28;19.80;99.90
9772;DHT22;4925;52.588;13.370;2022-08-25T06:49:20;19.90;99.90
9772;DHT22;4925;52.588;13.370;2022-08-25T06:51:46;20.00;99.90
9772;DHT22;4925;52.588;13.370;2022-08-25T06:54:12;20.00;99.90
9772;DHT22;4925;52.588;13.370;2022-08-25T06:56:39;20.10;99.90
9772;DHT22;4925;52.588;13.370;2022-08-25T06:59:06;20.20;99.90
9772;DHT22;4925;52.588;13.370;2022-08-25T07:01:33;20.20;99.90
9772;DHT22;4925;52.588;13.370;2022-08-25T07:04:01;20.20;99.90
9772;DHT22;4925;52.588;13.370;2022-08-25T07:06:29;20.30;99.90
9772;DHT22;4925;52.588;13.370;2022-08-25T07:08:56;20.40;99.90
9772;DHT22;4925;52.588;13.370;2022-08-25T07:11:22;20.30;99.90
9772;DHT22;4925;52.588;13.370;2022-08-25T07:13:49;20.40;99.90
9772;DHT22;4925;52.588;13.370;2022-08-25T07:16:17;20.50;99.90
9772;DHT22;4925;52.588;13.370;2022-08-25T07:18:43;20.50;99.90
9772;DHT22;4925;52.588;13.370;2022-08-25T07:21:10;20.60;99.90
9772;DHT22;4925;52.588;13.370;2022-08-25T07:23:36;20.60;99.90
9772;DHT22;4925;52.588;13.370;2022-08-25T07:26:15;20.70;99.90
9772;DHT22;4925;52.588;13.370;2022-08-25T07:28:42;20.70;99.90
9772;DHT22;4925;52.588;13.370;2022-08-25T07:31:08;20.80;99.90
9772;DHT22;4925;52.588;13.370;2022-08-25T07:33:34;20.80;99.90
9772;DHT22;4925;52.588;13.370;2022-08-25T07:36:00;20.80;99.90
9772;DHT22;4925;52.588;13.370;2022-08-25T07:38:26;20.90;99.90
9772;DHT22;4925;52.588;13.370;2022-08-25T07:41:01;21.00;99.90
9772;DHT22;4925;52.588;13.370;2022-08-25T07:43:28;21.00;99.90
9772;DHT22;4925;52.588;13.370;2022-08-25T07:45:54;21.00;99.90
9772;DHT22;4925;52.588;13.370;2022-08-25T07:48:20;21.10;99.90
9772;DHT22;4925;52.588;13.370;2022-08-25T07:50:47;21.20;99.90
9772;DHT22;4925;52.588;13.370;2022-08-25T07:53:14;21.30;99.90
9772;DHT22;4925;52.588;13.370;2022-08-25T07:55:40;21.30;99.90
9772;DHT22;4925;52.588;13.370;2022-08-25T07:58:08;21.30;99.90
9772;DHT22;4925;52.588;13.370;2022-08-25T08:00:35;21.40;99.90
9772;DHT22;4925;52.588;13.370;2022-08-25T08:03:04;21.40;99.90
9772;DHT22;4925;52.588;13.370;2022-08-25T08:05:31;21.50;99.90
9772;DHT22;4925;52.588;13.370;2022-08-25T08:07:56;21.50;99.90
9772;DHT22;4925;52.588;13.370;2022-08-25T08:10:23;21.60;99.90
9772;DHT22;4925;52.588;13.370;2022-08-25T08:12:50;21.70;99.90
9772;DHT22;4925;52.588;13.370;2022-08-25T08:15:16;21.70;99.90
9772;DHT22;4925;52.588;13.370;2022-08-25T08:17:43;21.70;99.90
9772;DHT22;4925;52.588;13.370;2022-08-25T08:20:10;21.70;99.90
9772;DHT22;4925;52.588;13.370;2022-08-25T08:22:38;21.70;99.90
9772;DHT22;4925;52.588;13.370;2022-08-25T08:25:04;21.80;99.90
9772;DHT22;4925;52.588;13.370;2022-08-25T08:27:30;21.90;99.90
9772;DHT22;4925;52.588;13.370;2022-08-25T08:29:56;22.00;99.90
9772;DHT22;4925;52.588;13.370;2022-08-25T08:32:21;22.00;99.90
9772;DHT22;4925;52.588;13.370;2022-08-25T08:34:47;22.10;99.90
9772;DHT22;4925;52.588;13.370;2022-08-25T08:37:14;22.10;99.90
9772;DHT22;4925;52.588;13.370;2022-08-25T08:39:40;22.20;99.90
9772;DHT22;4925;52.588;13.370;2022-08-25T08:52:46;23.00;99.90
9772;DHT22;4925;52.588;13.370;2022-08-25T08:55:31;23.20;99.90
9772;DHT22;4925;52.588;13.370;2022-08-25T08:58:06;23.30;99.90
9772;DHT22;4925;52.588;13.370;2022-08-25T09:00:35;23.50;99.90
9772;DHT22;4925;52.588;13.370;2022-08-25T09:03:26;23.60;99.90
9772;DHT22;4925;52.588;13.370;2022-08-25T09:05:55;23.60;99.90
9772;DHT22;4925;52.588;13.370;2022-08-25T09:08:23;23.70;99.90
9772;DHT22;4925;52.588;13.370;2022-08-25T09:16:48;23.60;99.90
9772;DHT22;4925;52.588;13.370;2022-08-25T09:19:24;23.70;99.90
9772;DHT22;4925;52.588;13.370;2022-08-25T09:22:17;23.70;99.90
9772;DHT22;4925;52.588;13.370;2022-08-25T09:30:18;23.90;99.90
9772;DHT22;4925;52.588;13.370;2022-08-25T09:32:47;23.90;99.90
9772;DHT22;4925;52.588;13.370;2022-08-25T09:35:19;23.90;99.90
9772;DHT22;4925;52.588;13.370;2022-08-25T09:37:57;24.10;99.90
9772;DHT22;4925;52.588;13.370;2022-08-25T09:40:23;24.10;99.90
9772;DHT22;4925;52.588;13.370;2022-08-25T09:42:52;24.20;99.90
9772;DHT22;4925;52.588;13.370;2022-08-25T09:45:49;24.30;99.90
9772;DHT22;4925;52.588;13.370;2022-08-25T09:48:28;24.50;99.90
9772;DHT22;4925;52.588;13.370;2022-08-25T09:51:01;24.60;99.90
9772;DHT22;4925;52.588;13.370;2022-08-25T09:53:34;24.70;99.90
9772;DHT22;4925;52.588;13.370;2022-08-25T09:56:04;24.70;99.90
9772;DHT22;4925;52.588;13.370;2022-08-25T09:58:32;24.70;99.90
9772;DHT22;4925;52.588;13.370;2022-08-25T10:03:29;24.90;99.90
9772;DHT22;4925;52.588;13.370;2022-08-25T10:06:00;24.90;99.90
9772;DHT22;4925;52.588;13.370;2022-08-25T10:11:05;24.90;99.90
9772;DHT22;4925;52.588;13.370;2022-08-25T10:13:44;24.70;99.90
9772;DHT22;4925;52.588;13.370;2022-08-25T10:16:32;24.50;99.90
9772;DHT22;4925;52.588;13.370;2022-08-25T10:19:01;24.70;99.90
9772;DHT22;4925;52.588;13.370;2022-08-25T10:21:27;24.70;99.90
9772;DHT22;4925;52.588;13.370;2022-08-25T10:23:53;25.00;99.90
9772;DHT22;4925;52.588;13.370;2022-08-25T10:26:26;25.30;99.90
9772;DHT22;4925;52.588;13.370;2022-08-25T10:34:48;25.90;99.90
9772;DHT22;4925;52.588;13.370;2022-08-25T10:37:44;25.90;99.90
9772;DHT22;4925;52.588;13.370;2022-08-25T10:40:38;25.80;99.90
9772;DHT22;4925;52.588;13.370;2022-08-25T10:46:16;26.00;99.90
9772;DHT22;4925;52.588;13.370;2022-08-25T10:51:41;26.50;99.90
9772;DHT22;4925;52.588;13.370;2022-08-25T10:59:55;26.80;99.90
9772;DHT22;4925;52.588;13.370;2022-08-25T11:02:37;26.80;99.90
9772;DHT22;4925;52.588;13.370;2022-08-25T11:07:45;26.90;99.90
9772;DHT22;4925;52.588;13.370;2022-08-25T11:10:26;27.00;99.90
9772;DHT22;4925;52.588;13.370;2022-08-25T11:12:59;27.00;99.90
9772;DHT22;4925;52.588;13.370;2022-08-25T11:17:56;27.40;99.90
9772;DHT22;4925;52.588;13.370;2022-08-25T11:20:31;28.50;99.90
9772;DHT22;4925;52.588;13.370;2022-08-25T11:23:16;27.90;99.90
9772;DHT22;4925;52.588;13.370;2022-08-25T11:25:50;28.20;99.90
9772;DHT22;4925;52.588;13.370;2022-08-25T11:28:55;28.60;99.90
9772;DHT22;4925;52.588;13.370;2022-08-25T11:31:24;29.10;99.90
9772;DHT22;4925;52.588;13.370;2022-08-25T11:33:58;29.40;99.90
9772;DHT22;4925;52.588;13.370;2022-08-25T11:36:36;29.40;99.90
9772;DHT22;4925;52.588;13.370;2022-08-25T11:44:59;28.90;99.90
9772;DHT22;4925;52.588;13.370;2022-08-25T11:55:56;28.40;99.90
9772;DHT22;4925;52.588;13.370;2022-08-25T11:58:47;28.30;99.90
9772;DHT22;4925;52.588;13.370;2022-08-25T12:09:32;29.90;99.90
9772;DHT22;4925;52.588;13.370;2022-08-25T12:11:58;29.80;99.90
9772;DHT22;4925;52.588;13.370;2022-08-25T12:19:28;29.70;99.90
9772;DHT22;4925;52.588;13.370;2022-08-25T12:22:37;30.00;99.90
9772;DHT22;4925;52.588;13.370;2022-08-25T12:30:37;30.90;99.90
9772;DHT22;4925;52.588;13.370;2022-08-25T12:33:27;30.40;99.90
9772;DHT22;4925;52.588;13.370;2022-08-25T12:36:00;30.00;99.90
9772;DHT22;4925;52.588;13.370;2022-08-25T12:38:43;30.20;99.90
9772;DHT22;4925;52.588;13.370;2022-08-25T12:41:18;30.80;99.90
9772;DHT22;4925;52.588;13.370;2022-08-25T12:43:48;31.10;99.90
9772;DHT22;4925;52.588;13.370;2022-08-25T12:49:02;31.50;99.90
9772;DHT22;4925;52.588;13.370;2022-08-25T12:54:21;30.70;99.90
9772;DHT22;4925;52.588;13.370;2022-08-25T12:56:57;30.00;99.90
9772;DHT22;4925;52.588;13.370;2022-08-25T12:59:38;29.60;99.90
9772;DHT22;4925;52.588;13.370;2022-08-25T13:08:43;30.40;99.90
9772;DHT22;4925;52.588;13.370;2022-08-25T13:11:27;31.00;99.90
9772;DHT22;4925;52.588;13.370;2022-08-25T13:14:21;31.10;99.90
9772;DHT22;4925;52.588;13.370;2022-08-25T13:16:56;31.10;99.90
9772;DHT22;4925;52.588;13.370;2022-08-25T13:19:23;31.30;99.90
9772;DHT22;4925;52.588;13.370;2022-08-25T13:21:50;31.40;99.90
9772;DHT22;4925;52.588;13.370;2022-08-25T13:24:32;31.30;99.90
9772;DHT22;4925;52.588;13.370;2022-08-25T13:27:06;31.10;99.90
9772;DHT22;4925;52.588;13.370;2022-08-25T13:29:48;30.70;99.90
9772;DHT22;4925;52.588;13.370;2022-08-25T13:32:19;30.50;99.90
9772;DHT22;4925;52.588;13.370;2022-08-25T13:34:49;30.60;99.90
9772;DHT22;4925;52.588;13.370;2022-08-25T13:37:17;30.50;99.90
9772;DHT22;4925;52.588;13.370;2022-08-25T13:40:13;30.40;99.90
9772;DHT22;4925;52.588;13.370;2022-08-25T13:42:43;30.60;99.90
9772;DHT22;4925;52.588;13.370;2022-08-25T13:45:15;30.20;99.90
9772;DHT22;4925;52.588;13.370;2022-08-25T13:47:43;30.40;99.90
9772;DHT22;4925;52.588;13.370;2022-08-25T13:53:14;30.20;99.90
9772;DHT22;4925;52.588;13.370;2022-08-25T13:58:16;30.00;99.90
9772;DHT22;4925;52.588;13.370;2022-08-25T14:01:08;29.80;99.90
9772;DHT22;4925;52.588;13.370;2022-08-25T14:03:39;29.60;99.90
9772;DHT22;4925;52.588;13.370;2022-08-25T14:06:06;29.40;99.90
9772;DHT22;4925;52.588;13.370;2022-08-25T14:08:38;29.20;99.90
9772;DHT22;4925;52.588;13.370;2022-08-25T14:11:14;29.00;99.90
9772;DHT22;4925;52.588;13.370;2022-08-25T14:13:42;28.90;99.90
9772;DHT22;4925;52.588;13.370;2022-08-25T14:18:39;29.10;99.90
9772;DHT22;4925;52.588;13.370;2022-08-25T14:21:10;29.00;99.90
9772;DHT22;4925;52.588;13.370;2022-08-25T14:23:37;29.10;99.90
9772;DHT22;4925;52.588;13.370;2022-08-25T14:26:03;29.20;99.90
9772;DHT22;4925;52.588;13.370;2022-08-25T14:28:30;29.30;99.90
9772;DHT22;4925;52.588;13.370;2022-08-25T14:31:08;29.00;99.90
9772;DHT22;4925;52.588;13.370;2022-08-25T14:33:40;29.00;99.90
9772;DHT22;4925;52.588;13.370;2022-08-25T14:36:06;28.90;99.90
9772;DHT22;4925;52.588;13.370;2022-08-25T14:38:33;28.90;99.90
9772;DHT22;4925;52.588;13.370;2022-08-25T14:40:59;28.70;99.90
9772;DHT22;4925;52.588;13.370;2022-08-25T14:43:25;28.60;99.90
9772;DHT22;4925;52.588;13.370;2022-08-25T14:45:51;28.40;99.90
9772;DHT22;4925;52.588;13.370;2022-08-25T14:48:35;28.20;99.90
9772;DHT22;4925;52.588;13.370;2022-08-25T14:51:02;28.20;99.90
9772;DHT22;4925;52.588;13.370;2022-08-25T14:53:28;28.00;99.90
9772;DHT22;4925;52.588;13.370;2022-08-25T14:55:54;28.00;99.90
9772;DHT22;4925;52.588;13.370;2022-08-25T14:58:20;28.10;99.90
9772;DHT22;4925;52.588;13.370;2022-08-25T15:00:47;28.20;99.90
9772;DHT22;4925;52.588;13.370;2022-08-25T15:03:16;28.30;99.90
9772;DHT22;4925;52.588;13.370;2022-08-25T15:05:43;28.40;99.90
9772;DHT22;4925;52.588;13.370;2022-08-25T15:08:09;28.50;99.90
9772;DHT22;4925;52.588;13.370;2022-08-25T15:10:55;28.70;99.90
9772;DHT22;4925;52.588;13.370;2022-08-25T15:13:20;28.80;99.90
9772;DHT22;4925;52.588;13.370;2022-08-25T15:15:46;28.80;99.90
9772;DHT22;4925;52.588;13.370;2022-08-25T15:18:13;28.70;99.90
9772;DHT22;4925;52.588;13.370;2022-08-25T15:20:39;28.40;99.90
9772;DHT22;4925;52.588;13.370;2022-08-25T15:23:04;28.20;99.90
9772;DHT22;4925;52.588;13.370;2022-08-25T15:25:30;28.10;99.90
9772;DHT22;4925;52.588;13.370;2022-08-25T15:27:55;28.10;99.90
9772;DHT22;4925;52.588;13.370;2022-08-25T15:30:21;28.10;99.90
9772;DHT22;4925;52.588;13.370;2022-08-25T15:32:47;28.10;99.90
9772;DHT22;4925;52.588;13.370;2022-08-25T15:35:13;28.10;99.90
9772;DHT22;4925;52.588;13.370;2022-08-25T15:37:38;28.10;99.90
9772;DHT22;4925;52.588;13.370;2022-08-25T15:40:05;28.20;99.90
9772;DHT22;4925;52.588;13.370;2022-08-25T15:42:32;28.20;99.90
9772;DHT22;4925;52.588;13.370;2022-08-25T15:44:57;28.20;99.90
9772;DHT22;4925;52.588;13.370;2022-08-25T15:47:23;28.30;99.90
9772;DHT22;4925;52.588;13.370;2022-08-25T15:49:49;28.20;99.90
9772;DHT22;4925;52.588;13.370;2022-08-25T15:52:15;28.20;99.90
9772;DHT22;4925;52.588;13.370;2022-08-25T15:54:41;28.10;99.90
9772;DHT22;4925;52.588;13.370;2022-08-25T15:57:07;28.10;99.90
9772;DHT22;4925;52.588;13.370;2022-08-25T15:59:32;28.20;99.90
9772;DHT22;4925;52.588;13.370;2022-08-25T16:01:58;28.20;99.90
9772;DHT22;4925;52.588;13.370;2022-08-25T16:04:26;28.30;99.90
9772;DHT22;4925;52.588;13.370;2022-08-25T16:06:52;28.20;99.90
9772;DHT22;4925;52.588;13.370;2022-08-25T16:09:20;28.10;99.90
9772;DHT22;4925;52.588;13.370;2022-08-25T16:11:45;28.10;99.90
9772;DHT22;4925;52.588;13.370;2022-08-25T16:14:11;28.00;99.90
9772;DHT22;4925;52.588;13.370;2022-08-25T16:16:37;27.90;99.90
9772;DHT22;4925;52.588;13.370;2022-08-25T16:19:03;27.90;99.90
9772;DHT22;4925;52.588;13.370;2022-08-25T16:21:31;27.80;99.90
9772;DHT22;4925;52.588;13.370;2022-08-25T16:24:01;27.80;99.90
9772;DHT22;4925;52.588;13.370;2022-08-25T16:26:27;27.80;99.90
9772;DHT22;4925;52.588;13.370;2022-08-25T16:28:53;27.80;99.90
9772;DHT22;4925;52.588;13.370;2022-08-25T16:31:20;27.70;99.90
9772;DHT22;4925;52.588;13.370;2022-08-25T16:33:45;27.70;99.90
9772;DHT22;4925;52.588;13.370;2022-08-25T16:36:14;27.60;99.90
9772;DHT22;4925;52.588;13.370;2022-08-25T16:38:42;27.60;99.90
9772;DHT22;4925;52.588;13.370;2022-08-25T16:41:11;27.60;99.90
9772;DHT22;4925;52.588;13.370;2022-08-25T16:43:37;27.50;99.90
9772;DHT22;4925;52.588;13.370;2022-08-25T16:46:05;27.50;99.90
9772;DHT22;4925;52.588;13.370;2022-08-25T16:48:32;27.50;99.90
9772;DHT22;4925;52.588;13.370;2022-08-25T16:50:57;27.50;99.90
9772;DHT22;4925;52.588;13.370;2022-08-25T16:53:23;27.40;99.90
9772;DHT22;4925;52.588;13.370;2022-08-25T16:56:08;27.40;99.90
9772;DHT22;4925;52.588;13.370;2022-08-25T16:58:34;27.30;99.90
9772;DHT22;4925;52.588;13.370;2022-08-25T17:03:30;27.20;99.90
9772;DHT22;4925;52.588;13.370;2022-08-25T17:05:58;27.20;99.90
9772;DHT22;4925;52.588;13.370;2022-08-25T17:08:23;27.20;99.90
9772;DHT22;4925;52.588;13.370;2022-08-25T17:11:13;27.20;99.90
9772;DHT22;4925;52.588;13.370;2022-08-25T17:13:41;27.10;99.90
9772;DHT22;4925;52.588;13.370;2022-08-25T17:16:07;27.00;99.90
9772;DHT22;4925;52.588;13.370;2022-08-25T17:18:34;27.00;99.90
9772;DHT22;4925;52.588;13.370;2022-08-25T17:21:11;26.90;99.90
9772;DHT22;4925;52.588;13.370;2022-08-25T17:23:38;26.90;99.90
9772;DHT22;4925;52.588;13.370;2022-08-25T17:26:05;26.80;99.90
9772;DHT22;4925;52.588;13.370;2022-08-25T17:28:31;26.80;99.90
9772;DHT22;4925;52.588;13.370;2022-08-25T17:30:57;26.70;99.90
9772;DHT22;4925;52.588;13.370;2022-08-25T17:33:24;26.70;99.90
9772;DHT22;4925;52.588;13.370;2022-08-25T17:35:52;26.70;99.90
9772;DHT22;4925;52.588;13.370;2022-08-25T17:38:19;26.70;99.90
9772;DHT22;4925;52.588;13.370;2022-08-25T17:40:47;26.70;99.90
9772;DHT22;4925;52.588;13.370;2022-08-25T17:43:13;26.60;99.90
9772;DHT22;4925;52.588;13.370;2022-08-25T17:45:39;26.50;99.90
9772;DHT22;4925;52.588;13.370;2022-08-25T17:48:07;26.50;99.90